createdAt,value
2019-02-05T00:00:26.584Z,67.07
2019-02-05T00:02:55.545Z,66.97
2019-02-05T00:05:24.112Z,60.33
2019-02-05T00:07:52.654Z,66.33
2019-02-05T00:10:21.158Z,63.37
2019-02-05T00:12:49.713Z,60.50
2019-02-05T00:15:18.434Z,69.80
2019-02-05T00:17:47.381Z,55.70
2019-02-05T00:20:15.941Z,63.10
2019-02-05T00:22:44.547Z,61.67
2019-02-05T00:25:13.196Z,57.60
2019-02-05T00:27:41.775Z,62.50
2019-02-05T00:30:13.405Z,63.77
2019-02-05T00:32:42.452Z,62.27
2019-02-05T00:35:11.039Z,70.43
2019-02-05T00:37:40.355Z,73.53
2019-02-05T00:40:10.932Z,61.50
2019-02-05T00:42:39.495Z,60.20
2019-02-05T00:45:12.197Z,60.00
2019-02-05T00:47:41.266Z,58.90
2019-02-05T00:50:17.353Z,65.43
2019-02-05T00:52:45.916Z,55.30
2019-02-05T00:55:17.020Z,65.50
2019-02-05T00:57:45.630Z,58.40
2019-02-05T01:00:20.073Z,63.47
2019-02-05T01:02:49.659Z,66.67
2019-02-05T01:05:18.245Z,55.47
2019-02-05T01:07:46.876Z,66.80
2019-02-05T01:10:15.500Z,55.67
2019-02-05T01:12:44.133Z,63.13
2019-02-05T01:15:20.395Z,66.47
2019-02-05T01:17:48.965Z,51.43
2019-02-05T01:20:21.385Z,47.17
2019-02-05T01:22:49.924Z,63.40
2019-02-05T01:25:19.508Z,60.37
2019-02-05T01:27:48.407Z,43.37
2019-02-05T01:30:25.143Z,49.40
2019-02-05T01:32:53.786Z,50.17
2019-02-05T01:35:22.408Z,50.57
2019-02-05T01:37:51.000Z,52.40
2019-02-05T01:40:26.802Z,44.53
2019-02-05T01:42:55.479Z,52.27
2019-02-05T01:45:25.493Z,50.10
2019-02-05T01:47:54.190Z,50.00
2019-02-05T01:50:26.681Z,44.00
2019-02-05T01:52:55.261Z,38.50
2019-02-05T01:55:24.070Z,44.40
2019-02-05T01:57:52.674Z,45.90
2019-02-05T02:00:32.141Z,45.70
2019-02-05T02:03:00.853Z,40.37
2019-02-05T02:05:29.516Z,39.17
2019-02-05T02:07:58.479Z,46.30
2019-02-05T02:10:28.898Z,42.27
2019-02-05T02:12:57.580Z,48.13
2019-02-05T02:15:26.067Z,55.73
2019-02-05T02:17:54.677Z,48.33
2019-02-05T02:20:23.252Z,39.17
2019-02-05T02:22:51.817Z,40.27
2019-02-05T02:25:20.412Z,46.50
2019-02-05T02:27:49.863Z,49.63
2019-02-05T02:30:27.137Z,49.77
2019-02-05T02:32:55.627Z,40.20
2019-02-05T02:35:24.253Z,46.27
2019-02-05T02:37:53.253Z,48.50
2019-02-05T02:40:22.306Z,41.13
2019-02-05T02:42:50.894Z,44.67
2019-02-05T02:45:22.146Z,47.40
2019-02-05T02:47:50.698Z,44.10
2019-02-05T02:50:22.833Z,45.80
2019-02-05T02:52:51.677Z,45.17
2019-02-05T02:55:20.226Z,48.50
2019-02-05T02:57:48.850Z,42.17
2019-02-05T03:00:21.943Z,45.17
2019-02-05T03:02:51.894Z,50.13
2019-02-05T03:05:24.580Z,47.13
2019-02-05T03:07:53.132Z,52.03
2019-02-05T03:10:26.649Z,46.43
2019-02-05T03:12:55.560Z,47.87
2019-02-05T03:15:24.127Z,46.70
2019-02-05T03:17:52.773Z,45.47
2019-02-05T03:20:21.301Z,48.67
2019-02-05T03:23:09.791Z,45.60
2019-02-05T03:25:39.169Z,53.30
2019-02-05T03:28:07.743Z,46.40
2019-02-05T03:30:36.374Z,49.23
2019-02-05T03:33:04.900Z,44.93
2019-02-05T03:35:33.539Z,164.17
2019-02-05T03:38:02.171Z,62.07
2019-02-05T03:40:33.975Z,60.23
2019-02-05T03:43:02.614Z,142.80
2019-02-05T03:45:31.506Z,48.57
2019-02-05T03:48:03.328Z,43.10
2019-02-05T03:50:33.659Z,44.83
2019-02-05T03:53:17.627Z,51.60
2019-02-05T03:55:54.873Z,47.67
2019-02-05T03:58:41.631Z,48.97
2019-02-05T04:01:28.963Z,58.37
2019-02-05T04:04:15.420Z,46.63
2019-02-05T04:06:55.999Z,49.10
2019-02-05T04:09:48.463Z,47.60
2019-02-05T04:12:51.909Z,47.37
2019-02-05T04:15:48.085Z,47.70
2019-02-05T04:18:31.530Z,44.33
2019-02-05T04:21:03.222Z,56.63
2019-02-05T04:23:40.692Z,43.20
2019-02-05T04:26:19.267Z,44.07
2019-02-05T04:29:08.860Z,48.90
2019-02-05T04:31:40.660Z,53.93
2019-02-05T04:34:15.083Z,63.37
2019-02-05T04:37:07.016Z,51.70
2019-02-05T04:39:41.609Z,144.17
2019-02-05T04:42:28.120Z,169.87
2019-02-05T04:45:33.354Z,151.37
2019-02-05T04:48:20.044Z,96.70
2019-02-05T04:50:54.425Z,50.63
2019-02-05T04:53:29.105Z,50.33
2019-02-05T04:56:03.846Z,52.07
2019-02-05T04:58:54.192Z,42.33
2019-02-05T05:01:49.560Z,45.93
2019-02-05T05:04:30.874Z,47.20
2019-02-05T05:07:17.496Z,54.43
2019-02-05T05:09:54.545Z,49.50
2019-02-05T05:12:23.505Z,49.10
2019-02-05T05:14:52.174Z,50.40
2019-02-05T05:17:20.762Z,58.30
2019-02-05T05:19:49.323Z,56.03
2019-02-05T05:22:17.890Z,58.07
2019-02-05T05:24:46.580Z,54.77
2019-02-05T05:27:16.719Z,59.83
2019-02-05T05:29:45.486Z,56.70
2019-02-05T05:32:14.098Z,54.93
2019-02-05T05:34:42.667Z,56.93
2019-02-05T05:37:10.208Z,57.57
2019-02-05T05:39:38.887Z,64.50
2019-02-05T05:42:07.385Z,59.30
2019-02-05T05:44:35.953Z,48.87
2019-02-05T05:47:04.879Z,54.13
2019-02-05T05:49:33.379Z,61.83
2019-02-05T05:52:02.064Z,62.63
2019-02-05T05:54:30.993Z,55.67
2019-02-05T05:56:59.783Z,57.40
2019-02-05T05:59:28.309Z,59.13
2019-02-05T06:01:56.917Z,56.20
2019-02-05T06:04:26.030Z,67.17
2019-02-05T06:06:54.679Z,64.07
2019-02-05T06:09:23.287Z,63.53
2019-02-05T06:11:51.852Z,71.67
2019-02-05T06:14:20.419Z,59.63
2019-02-05T06:16:48.998Z,59.03
2019-02-05T06:19:18.060Z,58.67
2019-02-05T06:21:46.647Z,63.10
2019-02-05T06:24:15.243Z,63.23
2019-02-05T06:26:43.848Z,67.03
2019-02-05T06:29:13.290Z,66.63
2019-02-05T06:31:41.916Z,66.90
2019-02-05T06:34:10.408Z,69.23
2019-02-05T06:36:38.982Z,63.13
2019-02-05T06:39:08.183Z,73.20
2019-02-05T06:41:36.746Z,64.17
2019-02-05T06:44:05.240Z,66.73
2019-02-05T06:46:33.852Z,66.50
2019-02-05T06:49:02.407Z,67.80
2019-02-05T06:51:31.072Z,63.13
2019-02-05T06:54:00.376Z,52.43
2019-02-05T06:56:28.934Z,53.00
2019-02-05T06:58:57.500Z,65.33
2019-02-05T07:01:26.132Z,67.73
2019-02-05T07:03:54.666Z,76.50
2019-02-05T07:06:23.162Z,69.57
2019-02-05T07:08:51.687Z,59.93
2019-02-05T07:11:20.551Z,68.03
2019-02-05T07:13:49.517Z,60.13
2019-02-05T07:16:18.053Z,69.53
2019-02-05T07:18:47.118Z,72.07
2019-02-05T07:21:15.616Z,67.93
2019-02-05T07:23:44.197Z,54.27
2019-02-05T07:26:12.776Z,56.43
2019-02-05T07:28:41.578Z,74.77
2019-02-05T07:31:11.096Z,61.63
2019-02-05T07:33:39.704Z,62.77
2019-02-05T07:36:08.214Z,75.20
2019-02-05T07:38:36.742Z,65.57
2019-02-05T07:41:05.311Z,68.37
2019-02-05T07:43:33.931Z,69.50
2019-02-05T07:46:02.645Z,60.50
2019-02-05T07:48:31.475Z,65.10
2019-02-05T07:50:59.969Z,70.83
2019-02-05T07:53:28.638Z,72.23
2019-02-05T07:55:57.270Z,61.47
2019-02-05T07:58:25.847Z,66.83
2019-02-05T08:00:54.518Z,59.77
2019-02-05T08:03:23.142Z,66.37
2019-02-05T08:05:52.315Z,60.50
2019-02-05T08:08:21.095Z,71.93
2019-02-05T08:10:49.778Z,65.40
2019-02-05T08:13:18.421Z,71.30
2019-02-05T08:15:47.097Z,63.67
2019-02-05T08:18:15.757Z,68.63
2019-02-05T08:20:44.381Z,78.07
2019-02-05T08:23:13.067Z,60.23
2019-02-05T08:25:41.998Z,61.20
2019-02-05T08:28:10.662Z,63.83
2019-02-05T08:30:41.959Z,78.17
2019-02-05T08:33:11.485Z,67.67
2019-02-05T08:35:39.967Z,63.27
2019-02-05T08:38:08.589Z,69.80
2019-02-05T08:40:37.239Z,74.97
2019-02-05T08:43:06.959Z,63.97
2019-02-05T08:45:39.107Z,63.33
2019-02-05T08:48:09.998Z,65.13
2019-02-05T08:50:38.625Z,74.27
2019-02-05T08:53:07.237Z,65.67
2019-02-05T08:55:35.799Z,66.67
2019-02-05T08:58:07.047Z,63.83
2019-02-05T09:00:37.704Z,70.73
2019-02-05T09:03:07.582Z,58.00
2019-02-05T09:05:36.066Z,67.47
2019-02-05T09:08:04.686Z,71.93
2019-02-05T09:10:34.954Z,72.90
2019-02-05T09:13:03.589Z,66.73
2019-02-05T09:15:32.576Z,72.67
2019-02-05T09:18:01.508Z,67.43
2019-02-05T09:20:30.147Z,56.60
2019-02-05T09:22:59.114Z,56.40
2019-02-05T09:25:27.674Z,50.83
2019-02-05T09:27:56.319Z,50.63
2019-02-05T09:30:30.919Z,53.10
2019-02-05T09:33:01.680Z,40.30
2019-02-05T09:35:31.143Z,31.80
2019-02-05T09:37:59.816Z,34.17
2019-02-05T09:40:36.528Z,40.73
2019-02-05T09:43:05.141Z,33.10
2019-02-05T09:45:34.110Z,41.13
2019-02-05T09:48:02.669Z,36.13
2019-02-05T09:50:43.717Z,36.30
2019-02-05T09:53:01.421Z,35.97
2019-02-05T09:55:29.993Z,46.93
2019-02-05T09:57:58.679Z,35.33
2019-02-05T10:00:35.747Z,32.30
2019-02-05T10:03:06.386Z,33.10
2019-02-05T10:05:35.620Z,29.63
2019-02-05T10:08:04.386Z,38.23
2019-02-05T10:10:33.012Z,29.47
2019-02-05T10:13:01.583Z,38.00
2019-02-05T10:15:32.982Z,31.13
2019-02-05T10:18:01.992Z,32.53
2019-02-05T10:20:30.485Z,37.03
2019-02-05T10:23:00.718Z,25.73
2019-02-05T10:25:29.321Z,29.53
2019-02-05T10:27:57.961Z,38.27
2019-02-05T10:30:30.668Z,29.93
2019-02-05T10:33:00.288Z,27.27
2019-02-05T10:35:28.952Z,28.13
2019-02-05T10:37:57.968Z,30.30
2019-02-05T10:40:26.756Z,27.53
2019-02-05T10:42:55.625Z,32.40
2019-02-05T10:45:26.753Z,23.40
2019-02-05T10:47:55.408Z,22.90
2019-02-05T10:50:24.562Z,17.93
2019-02-05T10:52:53.902Z,18.07
2019-02-05T10:55:23.575Z,18.10
2019-02-05T10:57:55.960Z,23.50
2019-02-05T11:00:30.011Z,18.27
2019-02-05T11:03:00.463Z,25.33
2019-02-05T11:05:29.951Z,21.73
2019-02-05T11:07:58.559Z,19.80
2019-02-05T11:10:27.199Z,28.70
2019-02-05T11:12:55.750Z,20.13
2019-02-05T11:15:29.544Z,20.43
2019-02-05T11:17:58.131Z,19.93
2019-02-05T11:20:28.060Z,19.37
2019-02-05T11:22:57.031Z,22.77
2019-02-05T11:25:25.671Z,26.13
2019-02-05T11:27:54.314Z,22.40
2019-02-05T11:30:25.309Z,26.37
2019-02-05T11:32:53.867Z,25.43
2019-02-05T11:35:22.440Z,22.60
2019-02-05T11:37:51.429Z,21.37
2019-02-05T11:40:22.508Z,21.70
2019-02-05T11:42:51.199Z,21.33
2019-02-05T11:45:20.263Z,11.37
2019-02-05T11:47:49.104Z,24.63
2019-02-05T11:50:18.080Z,21.73
2019-02-05T11:52:46.767Z,24.73
2019-02-05T11:55:18.097Z,25.80
2019-02-05T11:57:46.738Z,22.83
2019-02-05T12:00:39.886Z,31.90
2019-02-05T12:03:09.720Z,22.03
2019-02-05T12:05:38.666Z,31.13
2019-02-05T12:08:07.339Z,18.63
2019-02-05T12:10:35.894Z,25.43
2019-02-05T12:13:04.535Z,24.20
2019-02-05T12:15:33.228Z,25.80
2019-02-05T12:18:02.351Z,22.97
2019-02-05T12:20:30.973Z,24.30
2019-02-05T12:23:00.052Z,28.67
2019-02-05T12:25:28.689Z,149.23
2019-02-05T12:27:57.324Z,123.70
2019-02-05T12:30:31.259Z,131.17
2019-02-05T12:33:01.909Z,127.10
2019-02-05T12:35:29.820Z,128.97
2019-02-05T12:37:58.451Z,142.47
2019-02-05T12:40:27.047Z,138.70
2019-02-05T12:42:55.314Z,132.43
2019-02-05T12:45:27.162Z,137.90
2019-02-05T12:47:55.477Z,143.33
2019-02-05T12:50:24.808Z,144.67
2019-02-05T12:52:53.452Z,145.10
2019-02-05T12:55:22.394Z,145.50
2019-02-05T12:57:50.968Z,156.83
2019-02-05T13:00:25.400Z,151.77
2019-02-05T13:02:54.704Z,141.70
2019-02-05T13:05:23.496Z,146.63
2019-02-05T13:07:51.806Z,141.37
2019-02-05T13:10:29.451Z,154.90
2019-02-05T13:12:57.756Z,149.87
2019-02-05T13:15:26.409Z,154.87
2019-02-05T13:17:54.739Z,133.13
2019-02-05T13:20:25.633Z,136.63
2019-02-05T13:22:55.202Z,140.93
2019-02-05T13:25:25.741Z,156.93
2019-02-05T13:27:54.353Z,137.90
2019-02-05T13:30:23.539Z,152.77
2019-02-05T13:32:51.795Z,146.87
2019-02-05T13:35:20.093Z,144.67
2019-02-05T13:37:48.730Z,158.43
2019-02-05T13:40:27.967Z,139.87
2019-02-05T13:42:56.655Z,157.67
2019-02-05T13:45:27.951Z,164.83
2019-02-05T13:47:56.254Z,146.47
2019-02-05T13:50:32.923Z,150.40
2019-02-05T13:52:55.469Z,152.50
2019-02-05T13:55:25.993Z,156.60
2019-02-05T13:57:54.347Z,154.07
2019-02-05T14:00:31.531Z,155.60
2019-02-05T14:03:00.264Z,153.03
2019-02-05T14:05:29.441Z,149.73
2019-02-05T14:07:59.597Z,159.17
2019-02-05T14:10:30.996Z,164.73
2019-02-05T14:12:59.840Z,185.83
2019-02-05T14:15:31.903Z,149.47
2019-02-05T14:18:00.952Z,157.40
2019-02-05T14:20:29.500Z,174.60
2019-02-05T14:22:57.796Z,160.43
2019-02-05T14:25:26.458Z,158.40
2019-02-05T14:27:55.027Z,175.60
2019-02-05T14:30:26.769Z,161.50
2019-02-05T14:32:55.025Z,160.40
2019-02-05T14:35:23.989Z,160.63
2019-02-05T14:37:52.716Z,159.43
2019-02-05T14:40:24.938Z,166.03
2019-02-05T14:42:53.626Z,152.97
2019-02-05T14:45:22.162Z,157.47
2019-02-05T14:47:50.806Z,167.73
2019-02-05T14:50:22.305Z,153.63
2019-02-05T14:52:50.905Z,148.93
2019-02-05T14:55:19.500Z,136.83
2019-02-05T14:57:48.063Z,156.27
2019-02-05T15:00:19.817Z,152.90
2019-02-05T15:02:48.462Z,148.23
2019-02-05T15:05:16.944Z,157.87
2019-02-05T15:07:45.558Z,170.40
2019-02-05T15:10:16.411Z,144.50
2019-02-05T15:12:45.043Z,151.97
2019-02-05T15:15:17.955Z,147.60
2019-02-05T15:17:46.665Z,157.67
2019-02-05T15:20:18.445Z,149.87
2019-02-05T15:22:47.137Z,152.77
2019-02-05T15:25:15.594Z,151.10
2019-02-05T15:27:44.516Z,145.70
2019-02-05T15:30:16.899Z,168.30
2019-02-05T15:32:59.496Z,165.70
2019-02-05T15:35:28.275Z,156.10
2019-02-05T15:37:56.940Z,146.80
2019-02-05T15:40:25.291Z,152.30
2019-02-05T15:42:54.024Z,147.97
2019-02-05T15:45:22.758Z,156.17
2019-02-05T15:47:51.100Z,142.50
2019-02-05T15:50:20.180Z,144.40
2019-02-05T15:52:48.696Z,141.60
2019-02-05T15:55:17.245Z,132.43
2019-02-05T15:57:46.023Z,143.40
2019-02-05T16:00:20.509Z,152.27
2019-02-05T16:02:48.809Z,163.30
2019-02-05T16:05:16.997Z,161.80
2019-02-05T16:07:45.566Z,152.77
2019-02-05T16:10:22.594Z,157.23
2019-02-05T16:12:51.230Z,154.53
2019-02-05T16:15:20.443Z,157.00
2019-02-05T16:17:49.076Z,152.53
2019-02-05T16:20:17.903Z,171.83
2019-02-05T16:22:46.124Z,158.13
2019-02-05T16:25:15.411Z,144.63
2019-02-05T16:27:44.046Z,153.77
2019-02-05T16:30:15.769Z,153.73
2019-02-05T16:32:44.466Z,153.30
2019-02-05T16:35:13.108Z,155.00
2019-02-05T16:37:41.681Z,156.43
2019-02-05T16:40:33.635Z,137.20
2019-02-05T16:43:02.280Z,151.90
2019-02-05T16:45:31.936Z,142.67
2019-02-05T16:48:00.730Z,152.87
2019-02-05T16:50:33.323Z,165.60
2019-02-05T16:53:01.833Z,156.57
2019-02-05T16:55:30.835Z,164.27
2019-02-05T16:57:59.186Z,165.30
2019-02-05T17:00:28.531Z,156.20
2019-02-05T17:02:57.066Z,151.97
2019-02-05T17:05:25.793Z,140.47
2019-02-05T17:07:54.478Z,145.37
2019-02-05T17:10:24.308Z,141.13
2019-02-05T17:12:52.987Z,148.23
2019-02-05T17:15:21.560Z,155.20
2019-02-05T17:17:49.932Z,163.87
2019-02-05T17:20:27.186Z,147.10
2019-02-05T17:22:55.804Z,142.67
2019-02-05T17:25:27.135Z,149.13
2019-02-05T17:27:59.840Z,152.87
2019-02-05T17:30:38.233Z,170.93
2019-02-05T17:33:06.915Z,147.23
2019-02-05T17:35:35.624Z,153.87
2019-02-05T17:38:06.934Z,157.57
2019-02-05T17:40:35.615Z,170.37
2019-02-05T17:43:04.759Z,152.93
2019-02-05T17:45:34.090Z,136.00
2019-02-05T17:48:05.113Z,141.17
2019-02-05T17:50:33.766Z,160.10
2019-02-05T17:53:02.522Z,159.80
2019-02-05T17:55:32.767Z,155.47
2019-02-05T17:58:01.804Z,158.20
2019-02-05T18:00:38.330Z,174.17
2019-02-05T18:03:06.596Z,138.60
2019-02-05T18:05:37.975Z,155.50
2019-02-05T18:08:06.605Z,150.43
2019-02-05T18:10:37.956Z,173.23
2019-02-05T18:13:06.595Z,157.10
2019-02-05T18:15:37.263Z,274.80
2019-02-05T18:18:06.708Z,168.93
2019-02-05T18:20:35.786Z,166.37
2019-02-05T18:23:04.349Z,166.00
2019-02-05T18:25:35.579Z,166.97
2019-02-05T18:28:04.221Z,164.77
2019-02-05T18:30:37.294Z,178.17
2019-02-05T18:33:06.719Z,169.63
2019-02-05T18:35:35.355Z,172.67
2019-02-05T18:38:11.226Z,153.90
2019-02-05T18:40:39.821Z,176.30
2019-02-05T18:43:10.028Z,156.13
2019-02-05T18:45:38.724Z,172.33
2019-02-05T18:48:07.683Z,172.20
2019-02-05T18:50:37.775Z,186.23
2019-02-05T18:53:06.385Z,175.40
2019-02-05T18:55:37.748Z,162.97
2019-02-05T18:58:09.464Z,177.80
2019-02-05T19:00:44.671Z,173.10
2019-02-05T19:03:15.846Z,143.53
2019-02-05T19:05:43.722Z,166.47
2019-02-05T19:08:12.328Z,171.63
2019-02-05T19:10:42.093Z,184.87
2019-02-05T19:13:17.069Z,161.37
2019-02-05T19:15:46.027Z,46.17
2019-02-05T19:18:15.645Z,170.30
2019-02-05T19:20:47.386Z,175.47
2019-02-05T19:23:16.390Z,167.40
2019-02-05T19:25:46.609Z,162.23
2019-02-05T19:28:19.259Z,162.00
2019-02-05T19:30:54.902Z,176.53
2019-02-05T19:33:27.379Z,151.57
2019-02-05T19:35:53.943Z,171.50
2019-02-05T19:38:23.991Z,164.07
2019-02-05T19:40:57.655Z,164.03
2019-02-05T19:43:23.589Z,169.27
2019-02-05T19:45:56.925Z,152.10
2019-02-05T19:48:30.173Z,169.63
2019-02-05T19:51:00.340Z,162.40
2019-02-05T19:53:30.559Z,170.47
2019-02-05T19:55:59.403Z,162.90
2019-02-05T19:58:28.036Z,152.07
2019-02-05T20:00:56.990Z,177.10
2019-02-05T20:03:25.591Z,156.50
2019-02-05T20:05:54.209Z,154.80
2019-02-05T20:08:22.965Z,156.97
2019-02-05T20:10:51.635Z,168.03
2019-02-05T20:13:21.908Z,159.57
2019-02-05T20:15:51.293Z,154.63
2019-02-05T20:18:20.036Z,165.60
2019-02-05T20:20:49.585Z,164.47
2019-02-05T20:23:18.367Z,154.77
2019-02-05T20:25:47.388Z,162.60
2019-02-05T20:28:15.988Z,164.80
2019-02-05T20:30:44.641Z,170.37
2019-02-05T20:33:13.737Z,169.13
2019-02-05T20:35:42.404Z,166.87
2019-02-05T20:38:11.398Z,162.17
2019-02-05T20:40:40.553Z,170.53
2019-02-05T20:43:11.292Z,162.73
2019-02-05T20:45:42.723Z,179.87
2019-02-05T20:48:11.371Z,167.93
2019-02-05T20:50:40.284Z,177.73
2019-02-05T20:53:13.871Z,194.27
2019-02-05T20:55:40.119Z,192.53
2019-02-05T20:58:08.810Z,80.83
2019-02-05T21:00:37.466Z,198.83
2019-02-05T21:03:06.730Z,189.67
2019-02-05T21:05:35.425Z,177.17
2019-02-05T21:08:04.068Z,172.03
2019-02-05T21:10:33.030Z,184.93
2019-02-05T21:13:01.794Z,174.10
2019-02-05T21:15:30.412Z,169.93
2019-02-05T21:17:59.060Z,180.63
2019-02-05T21:20:33.171Z,182.00
2019-02-05T21:22:59.539Z,172.93
2019-02-05T21:25:28.189Z,169.37
2019-02-05T21:27:58.295Z,168.33
2019-02-05T21:30:27.526Z,174.07
2019-02-05T21:32:56.114Z,168.03
2019-02-05T21:35:25.176Z,175.27
2019-02-05T21:37:53.814Z,175.43
2019-02-05T21:40:24.351Z,165.90
2019-02-05T21:42:52.895Z,165.93
2019-02-05T21:45:26.435Z,164.63
2019-02-05T21:47:55.020Z,140.47
2019-02-05T21:50:23.743Z,172.90
2019-02-05T21:52:52.518Z,175.00
2019-02-05T21:55:23.609Z,170.63
2019-02-05T21:57:52.271Z,157.97
2019-02-05T22:00:33.922Z,170.53
2019-02-05T22:03:02.578Z,172.87
2019-02-05T22:05:32.736Z,173.67
2019-02-05T22:08:01.758Z,161.20
2019-02-05T22:10:30.469Z,175.03
2019-02-05T22:12:59.037Z,168.47
2019-02-05T22:15:28.062Z,171.80
2019-02-05T22:17:56.715Z,169.77
2019-02-05T22:20:28.958Z,171.60
2019-02-05T22:22:57.591Z,175.37
2019-02-05T22:25:33.385Z,170.23
2019-02-05T22:28:01.982Z,169.13
2019-02-05T22:30:33.580Z,188.37
2019-02-05T22:33:02.270Z,185.43
2019-02-05T22:35:30.929Z,174.10
2019-02-05T22:37:59.488Z,166.07
2019-02-05T22:40:28.472Z,178.03
2019-02-05T22:42:56.961Z,168.87
2019-02-05T22:45:30.321Z,177.03
2019-02-05T22:47:59.388Z,173.07
2019-02-05T22:50:30.519Z,162.00
2019-02-05T22:52:59.188Z,177.67
2019-02-05T22:55:28.348Z,173.10
2019-02-05T22:57:56.997Z,171.30
2019-02-05T23:00:56.194Z,164.47
2019-02-05T23:03:30.921Z,171.43
2019-02-05T23:06:24.141Z,169.90
2019-02-05T23:08:53.484Z,156.03
2019-02-05T23:11:28.456Z,188.20
2019-02-05T23:13:57.029Z,169.67
2019-02-05T23:16:25.678Z,173.73
2019-02-05T23:18:54.363Z,174.43
2019-02-05T23:21:23.350Z,171.10
2019-02-05T23:23:51.872Z,166.97
2019-02-05T23:26:20.551Z,165.13
2019-02-05T23:28:49.115Z,161.23
2019-02-05T23:31:17.756Z,166.57
2019-02-05T23:33:46.325Z,161.53
2019-02-05T23:36:14.935Z,161.53
2019-02-05T23:38:43.574Z,154.10
2019-02-05T23:41:12.494Z,162.00
2019-02-05T23:43:41.416Z,177.13
2019-02-05T23:46:09.961Z,162.83
2019-02-05T23:48:38.592Z,148.50
2019-02-05T23:51:07.177Z,163.73
2019-02-05T23:53:36.192Z,157.37
2019-02-05T23:56:04.876Z,152.20
2019-02-05T23:58:34.332Z,147.90
